sensor_id;sensor_type;location;lat;lon;timestamp;temperature;humidity
68257;DHT22;55069;51.568;4.656;2023-03-31T00:01:37;11.00;87.43
68257;DHT22;55069;51.568;4.656;2023-03-31T00:04:10;10.90;87.83
68257;DHT22;55069;51.568;4.656;2023-03-31T00:06:38;10.90;88.06
68257;DHT22;55069;51.568;4.656;2023-03-31T00:09:15;10.86;88.46
68257;DHT22;55069;51.568;4.656;2023-03-31T00:11:44;10.86;88.49
68257;DHT22;55069;51.568;4.656;2023-03-31T00:14:10;10.86;88.70
68257;DHT22;55069;51.568;4.656;2023-03-31T00:16:37;10.86;88.76
68257;DHT22;55069;51.568;4.656;2023-03-31T00:19:03;10.86;88.83
68257;DHT22;55069;51.568;4.656;2023-03-31T00:21:29;10.82;89.05
68257;DHT22;55069;51.568;4.656;2023-03-31T00:24:00;10.86;89.12
68257;DHT22;55069;51.568;4.656;2023-03-31T00:26:26;10.86;89.03
68257;DHT22;55069;51.568;4.656;2023-03-31T00:28:53;10.92;88.79
68257;DHT22;55069;51.568;4.656;2023-03-31T00:31:19;10.92;88.90
68257;DHT22;55069;51.568;4.656;2023-03-31T00:33:45;10.92;88.97
68257;DHT22;55069;51.568;4.656;2023-03-31T00:36:11;10.95;88.62
68257;DHT22;55069;51.568;4.656;2023-03-31T00:38:37;11.06;88.32
68257;DHT22;55069;51.568;4.656;2023-03-31T00:41:03;11.09;88.27
68257;DHT22;55069;51.568;4.656;2023-03-31T00:43:34;11.09;88.21
68257;DHT22;55069;51.568;4.656;2023-03-31T00:46:21;11.14;88.40
68257;DHT22;55069;51.568;4.656;2023-03-31T00:48:51;11.10;88.38
68257;DHT22;55069;51.568;4.656;2023-03-31T00:51:20;11.13;88.39
68257;DHT22;55069;51.568;4.656;2023-03-31T00:53:51;11.18;88.36
68257;DHT22;55069;51.568;4.656;2023-03-31T00:56:22;11.21;88.43
68257;DHT22;55069;51.568;4.656;2023-03-31T00:58:49;11.23;88.52
68257;DHT22;55069;51.568;4.656;2023-03-31T01:01:19;11.21;88.50
68257;DHT22;55069;51.568;4.656;2023-03-31T01:03:49;11.18;88.65
68257;DHT22;55069;51.568;4.656;2023-03-31T01:06:17;11.17;88.84
68257;DHT22;55069;51.568;4.656;2023-03-31T01:08:49;11.21;89.02
68257;DHT22;55069;51.568;4.656;2023-03-31T01:11:18;11.21;88.94
68257;DHT22;55069;51.568;4.656;2023-03-31T01:13:46;11.18;89.17
68257;DHT22;55069;51.568;4.656;2023-03-31T01:16:16;11.13;89.61
68257;DHT22;55069;51.568;4.656;2023-03-31T01:18:42;11.13;89.64
68257;DHT22;55069;51.568;4.656;2023-03-31T01:34:48;11.07;90.55
68257;DHT22;55069;51.568;4.656;2023-03-31T01:40:03;11.13;90.54
68257;DHT22;55069;51.568;4.656;2023-03-31T01:48:11;11.04;90.80
68257;DHT22;55069;51.568;4.656;2023-03-31T01:53:26;11.01;91.18
68257;DHT22;55069;51.568;4.656;2023-03-31T01:58:36;10.97;91.25
68257;DHT22;55069;51.568;4.656;2023-03-31T02:01:28;10.97;91.28
68257;DHT22;55069;51.568;4.656;2023-03-31T02:04:02;10.93;91.35
68257;DHT22;55069;51.568;4.656;2023-03-31T02:06:34;10.90;91.47
68257;DHT22;55069;51.568;4.656;2023-03-31T02:09:11;10.84;91.54
68257;DHT22;55069;51.568;4.656;2023-03-31T02:11:39;10.84;91.77
68257;DHT22;55069;51.568;4.656;2023-03-31T02:14:10;10.83;91.85
68257;DHT22;55069;51.568;4.656;2023-03-31T02:16:39;10.86;91.40
68257;DHT22;55069;51.568;4.656;2023-03-31T02:19:14;10.82;91.67
68257;DHT22;55069;51.568;4.656;2023-03-31T02:21:45;10.77;91.78
68257;DHT22;55069;51.568;4.656;2023-03-31T02:24:14;10.76;92.02
68257;DHT22;55069;51.568;4.656;2023-03-31T02:27:06;10.72;92.15
68257;DHT22;55069;51.568;4.656;2023-03-31T02:29:34;10.71;92.30
68257;DHT22;55069;51.568;4.656;2023-03-31T02:34:29;10.69;92.23
68257;DHT22;55069;51.568;4.656;2023-03-31T02:36:55;10.68;92.38
68257;DHT22;55069;51.568;4.656;2023-03-31T02:39:25;10.71;92.36
68257;DHT22;55069;51.568;4.656;2023-03-31T02:41:52;10.65;92.37
68257;DHT22;55069;51.568;4.656;2023-03-31T02:44:19;10.62;92.25
68257;DHT22;55069;51.568;4.656;2023-03-31T02:46:45;10.63;92.38
68257;DHT22;55069;51.568;4.656;2023-03-31T02:49:12;10.59;92.43
68257;DHT22;55069;51.568;4.656;2023-03-31T02:57:47;10.52;92.41
68257;DHT22;55069;51.568;4.656;2023-03-31T03:00:39;10.49;92.41
68257;DHT22;55069;51.568;4.656;2023-03-31T03:05:57;10.46;92.48
68257;DHT22;55069;51.568;4.656;2023-03-31T03:11:49;10.48;92.39
68257;DHT22;55069;51.568;4.656;2023-03-31T03:17:02;10.46;92.26
68257;DHT22;55069;51.568;4.656;2023-03-31T03:19:30;10.46;92.13
68257;DHT22;55069;51.568;4.656;2023-03-31T03:21:56;10.44;92.26
68257;DHT22;55069;51.568;4.656;2023-03-31T03:24:22;10.48;92.34
68257;DHT22;55069;51.568;4.656;2023-03-31T03:26:48;10.46;92.21
68257;DHT22;55069;51.568;4.656;2023-03-31T03:29:14;10.48;92.06
68257;DHT22;55069;51.568;4.656;2023-03-31T03:31:40;10.49;91.90
68257;DHT22;55069;51.568;4.656;2023-03-31T03:34:06;10.55;91.85
68257;DHT22;55069;51.568;4.656;2023-03-31T03:36:35;10.52;91.94
68257;DHT22;55069;51.568;4.656;2023-03-31T03:39:01;10.51;92.08
68257;DHT22;55069;51.568;4.656;2023-03-31T03:41:28;10.52;91.83
68257;DHT22;55069;51.568;4.656;2023-03-31T03:43:54;10.53;91.78
68257;DHT22;55069;51.568;4.656;2023-03-31T03:46:20;10.55;91.83
68257;DHT22;55069;51.568;4.656;2023-03-31T03:48:45;10.56;91.48
68257;DHT22;55069;51.568;4.656;2023-03-31T03:51:11;10.52;91.71
68257;DHT22;55069;51.568;4.656;2023-03-31T03:53:36;10.55;91.59
68257;DHT22;55069;51.568;4.656;2023-03-31T03:56:02;10.53;91.48
68257;DHT22;55069;51.568;4.656;2023-03-31T03:58:28;10.52;91.60
68257;DHT22;55069;51.568;4.656;2023-03-31T04:00:53;10.52;91.72
68257;DHT22;55069;51.568;4.656;2023-03-31T04:03:19;10.48;91.73
68257;DHT22;55069;51.568;4.656;2023-03-31T04:05:46;10.44;91.78
68257;DHT22;55069;51.568;4.656;2023-03-31T04:08:14;10.48;91.75
68257;DHT22;55069;51.568;4.656;2023-03-31T04:10:43;10.45;91.83
68257;DHT22;55069;51.568;4.656;2023-03-31T04:13:09;10.41;91.75
68257;DHT22;55069;51.568;4.656;2023-03-31T04:15:35;10.40;91.80
68257;DHT22;55069;51.568;4.656;2023-03-31T04:18:01;10.38;91.98
68257;DHT22;55069;51.568;4.656;2023-03-31T04:20:26;10.37;92.10
68257;DHT22;55069;51.568;4.656;2023-03-31T04:22:55;10.40;92.16
68257;DHT22;55069;51.568;4.656;2023-03-31T04:25:21;10.35;91.99
68257;DHT22;55069;51.568;4.656;2023-03-31T04:27:49;10.37;92.09
68257;DHT22;55069;51.568;4.656;2023-03-31T04:30:16;10.40;92.07
68257;DHT22;55069;51.568;4.656;2023-03-31T04:32:52;10.40;91.88
68257;DHT22;55069;51.568;4.656;2023-03-31T04:35:19;10.37;92.05
68257;DHT22;55069;51.568;4.656;2023-03-31T04:37:47;10.34;92.19
68257;DHT22;55069;51.568;4.656;2023-03-31T04:40:13;10.31;92.21
68257;DHT22;55069;51.568;4.656;2023-03-31T04:42:38;10.31;92.27
68257;DHT22;55069;51.568;4.656;2023-03-31T04:45:04;10.28;92.32
68257;DHT22;55069;51.568;4.656;2023-03-31T04:47:30;10.25;92.42
68257;DHT22;55069;51.568;4.656;2023-03-31T04:49:56;10.22;92.47
68257;DHT22;55069;51.568;4.656;2023-03-31T04:52:22;10.27;92.23
68257;DHT22;55069;51.568;4.656;2023-03-31T04:54:47;10.24;91.93
68257;DHT22;55069;51.568;4.656;2023-03-31T04:57:13;10.30;91.80
68257;DHT22;55069;51.568;4.656;2023-03-31T04:59:38;10.28;91.58
68257;DHT22;55069;51.568;4.656;2023-03-31T05:02:04;10.28;91.73
68257;DHT22;55069;51.568;4.656;2023-03-31T05:04:29;10.27;91.71
68257;DHT22;55069;51.568;4.656;2023-03-31T05:06:55;10.25;92.01
68257;DHT22;55069;51.568;4.656;2023-03-31T05:09:21;10.28;91.89
68257;DHT22;55069;51.568;4.656;2023-03-31T05:11:47;10.20;91.93
68257;DHT22;55069;51.568;4.656;2023-03-31T05:14:12;10.20;91.93
68257;DHT22;55069;51.568;4.656;2023-03-31T05:16:38;10.21;91.55
68257;DHT22;55069;51.568;4.656;2023-03-31T05:19:03;10.25;91.36
68257;DHT22;55069;51.568;4.656;2023-03-31T05:21:29;10.21;90.79
68257;DHT22;55069;51.568;4.656;2023-03-31T05:23:56;10.24;90.76
68257;DHT22;55069;51.568;4.656;2023-03-31T05:26:22;10.22;91.06
68257;DHT22;55069;51.568;4.656;2023-03-31T05:28:50;10.25;90.82
68257;DHT22;55069;51.568;4.656;2023-03-31T05:31:16;10.20;90.65
68257;DHT22;55069;51.568;4.656;2023-03-31T05:33:43;10.18;91.02
68257;DHT22;55069;51.568;4.656;2023-03-31T05:36:14;10.18;90.91
68257;DHT22;55069;51.568;4.656;2023-03-31T05:38:41;10.14;91.30
68257;DHT22;55069;51.568;4.656;2023-03-31T05:41:07;10.13;91.26
68257;DHT22;55069;51.568;4.656;2023-03-31T05:43:34;10.13;91.38
68257;DHT22;55069;51.568;4.656;2023-03-31T05:46:00;10.11;91.61
68257;DHT22;55069;51.568;4.656;2023-03-31T05:48:26;10.08;91.58
68257;DHT22;55069;51.568;4.656;2023-03-31T05:50:56;10.05;91.63
68257;DHT22;55069;51.568;4.656;2023-03-31T05:53:23;10.07;91.79
68257;DHT22;55069;51.568;4.656;2023-03-31T05:55:49;10.04;91.90
68257;DHT22;55069;51.568;4.656;2023-03-31T05:58:20;10.04;91.96
68257;DHT22;55069;51.568;4.656;2023-03-31T06:00:46;10.00;92.24
68257;DHT22;55069;51.568;4.656;2023-03-31T06:03:11;10.05;92.42
68257;DHT22;55069;51.568;4.656;2023-03-31T06:05:37;10.03;92.48
68257;DHT22;55069;51.568;4.656;2023-03-31T06:08:03;10.04;92.59
68257;DHT22;55069;51.568;4.656;2023-03-31T06:10:29;10.07;92.51
68257;DHT22;55069;51.568;4.656;2023-03-31T06:12:55;10.08;92.52
68257;DHT22;55069;51.568;4.656;2023-03-31T06:15:21;10.07;92.60
68257;DHT22;55069;51.568;4.656;2023-03-31T06:17:46;10.15;92.55
68257;DHT22;55069;51.568;4.656;2023-03-31T06:20:12;10.17;92.48
68257;DHT22;55069;51.568;4.656;2023-03-31T06:22:38;10.24;92.41
68257;DHT22;55069;51.568;4.656;2023-03-31T06:25:04;10.24;92.41
68257;DHT22;55069;51.568;4.656;2023-03-31T06:27:30;10.28;92.23
68257;DHT22;55069;51.568;4.656;2023-03-31T06:29:56;10.30;92.07
68257;DHT22;55069;51.568;4.656;2023-03-31T06:32:22;10.37;91.74
68257;DHT22;55069;51.568;4.656;2023-03-31T06:34:47;10.44;91.34
68257;DHT22;55069;51.568;4.656;2023-03-31T06:37:13;10.44;91.17
68257;DHT22;55069;51.568;4.656;2023-03-31T06:39:39;10.42;91.15
68257;DHT22;55069;51.568;4.656;2023-03-31T06:42:04;10.44;91.52
68257;DHT22;55069;51.568;4.656;2023-03-31T06:44:36;10.46;91.44
68257;DHT22;55069;51.568;4.656;2023-03-31T06:47:02;10.51;91.58
68257;DHT22;55069;51.568;4.656;2023-03-31T06:49:28;10.55;91.75
68257;DHT22;55069;51.568;4.656;2023-03-31T06:51:53;10.63;91.62
68257;DHT22;55069;51.568;4.656;2023-03-31T06:54:19;10.82;91.01
68257;DHT22;55069;51.568;4.656;2023-03-31T06:56:45;10.89;90.75
68257;DHT22;55069;51.568;4.656;2023-03-31T06:59:10;11.04;90.50
68257;DHT22;55069;51.568;4.656;2023-03-31T07:01:36;11.07;90.19
68257;DHT22;55069;51.568;4.656;2023-03-31T07:04:03;11.14;89.83
68257;DHT22;55069;51.568;4.656;2023-03-31T07:06:29;11.17;90.14
68257;DHT22;55069;51.568;4.656;2023-03-31T07:08:55;11.21;89.69
68257;DHT22;55069;51.568;4.656;2023-03-31T07:11:21;11.23;89.88
68257;DHT22;55069;51.568;4.656;2023-03-31T07:13:47;11.20;89.90
68257;DHT22;55069;51.568;4.656;2023-03-31T07:16:12;11.10;89.94
68257;DHT22;55069;51.568;4.656;2023-03-31T07:18:38;11.14;89.86
68257;DHT22;55069;51.568;4.656;2023-03-31T07:21:07;11.23;89.66
68257;DHT22;55069;51.568;4.656;2023-03-31T07:23:33;11.18;89.95
68257;DHT22;55069;51.568;4.656;2023-03-31T07:26:00;11.17;90.15
68257;DHT22;55069;51.568;4.656;2023-03-31T07:28:28;11.18;90.13
68257;DHT22;55069;51.568;4.656;2023-03-31T07:30:53;11.23;90.03
68257;DHT22;55069;51.568;4.656;2023-03-31T07:33:19;11.26;90.06
68257;DHT22;55069;51.568;4.656;2023-03-31T07:35:45;11.28;89.74
68257;DHT22;55069;51.568;4.656;2023-03-31T07:38:11;11.32;89.86
68257;DHT22;55069;51.568;4.656;2023-03-31T07:40:38;11.34;90.00
68257;DHT22;55069;51.568;4.656;2023-03-31T07:43:04;11.42;90.05
68257;DHT22;55069;51.568;4.656;2023-03-31T07:45:31;11.45;89.81
68257;DHT22;55069;51.568;4.656;2023-03-31T07:47:57;11.51;89.55
68257;DHT22;55069;51.568;4.656;2023-03-31T07:50:22;11.52;89.41
68257;DHT22;55069;51.568;4.656;2023-03-31T07:52:50;11.55;88.95
68257;DHT22;55069;51.568;4.656;2023-03-31T07:55:16;11.65;88.99
68257;DHT22;55069;51.568;4.656;2023-03-31T07:57:42;11.61;89.23
68257;DHT22;55069;51.568;4.656;2023-03-31T08:00:10;11.64;88.74
68257;DHT22;55069;51.568;4.656;2023-03-31T08:02:40;11.69;88.63
68257;DHT22;55069;51.568;4.656;2023-03-31T08:05:07;11.78;88.52
68257;DHT22;55069;51.568;4.656;2023-03-31T08:07:35;11.83;88.52
68257;DHT22;55069;51.568;4.656;2023-03-31T08:10:03;11.90;87.88
68257;DHT22;55069;51.568;4.656;2023-03-31T08:12:29;11.99;87.03
68257;DHT22;55069;51.568;4.656;2023-03-31T08:14:55;12.00;86.42
68257;DHT22;55069;51.568;4.656;2023-03-31T08:17:20;12.07;86.29
68257;DHT22;55069;51.568;4.656;2023-03-31T08:19:46;12.13;86.38
68257;DHT22;55069;51.568;4.656;2023-03-31T08:22:11;12.19;86.66
68257;DHT22;55069;51.568;4.656;2023-03-31T08:24:37;12.10;86.61
68257;DHT22;55069;51.568;4.656;2023-03-31T08:27:03;12.14;86.46
68257;DHT22;55069;51.568;4.656;2023-03-31T08:29:28;12.24;86.15
68257;DHT22;55069;51.568;4.656;2023-03-31T08:31:54;12.36;86.00
68257;DHT22;55069;51.568;4.656;2023-03-31T08:34:20;12.51;85.23
68257;DHT22;55069;51.568;4.656;2023-03-31T08:36:45;12.51;84.82
68257;DHT22;55069;51.568;4.656;2023-03-31T08:39:12;12.54;84.49
68257;DHT22;55069;51.568;4.656;2023-03-31T08:41:57;12.62;84.51
68257;DHT22;55069;51.568;4.656;2023-03-31T08:44:39;12.67;83.81
68257;DHT22;55069;51.568;4.656;2023-03-31T08:47:14;12.74;83.67
68257;DHT22;55069;51.568;4.656;2023-03-31T08:49:45;12.78;83.45
68257;DHT22;55069;51.568;4.656;2023-03-31T08:52:18;12.84;83.65
68257;DHT22;55069;51.568;4.656;2023-03-31T08:54:54;12.91;82.97
68257;DHT22;55069;51.568;4.656;2023-03-31T08:57:27;12.88;83.10
68257;DHT22;55069;51.568;4.656;2023-03-31T08:59:56;12.96;83.18
68257;DHT22;55069;51.568;4.656;2023-03-31T09:02:30;13.19;82.36
68257;DHT22;55069;51.568;4.656;2023-03-31T09:05:23;13.19;82.07
68257;DHT22;55069;51.568;4.656;2023-03-31T09:08:06;13.19;81.89
68257;DHT22;55069;51.568;4.656;2023-03-31T09:15:52;13.37;80.20
68257;DHT22;55069;51.568;4.656;2023-03-31T09:18:30;13.56;80.59
68257;DHT22;55069;51.568;4.656;2023-03-31T09:21:21;13.50;79.01
68257;DHT22;55069;51.568;4.656;2023-03-31T09:28:59;13.44;80.08
68257;DHT22;55069;51.568;4.656;2023-03-31T09:31:27;13.44;78.18
68257;DHT22;55069;51.568;4.656;2023-03-31T09:33:58;13.50;78.55
68257;DHT22;55069;51.568;4.656;2023-03-31T09:36:25;13.47;77.80
68257;DHT22;55069;51.568;4.656;2023-03-31T09:38:51;13.50;78.71
68257;DHT22;55069;51.568;4.656;2023-03-31T09:41:18;13.58;79.25
68257;DHT22;55069;51.568;4.656;2023-03-31T09:43:45;13.51;78.90
68257;DHT22;55069;51.568;4.656;2023-03-31T09:46:18;13.67;80.07
68257;DHT22;55069;51.568;4.656;2023-03-31T09:49:24;13.58;78.90
68257;DHT22;55069;51.568;4.656;2023-03-31T09:51:48;13.37;78.94
68257;DHT22;55069;51.568;4.656;2023-03-31T09:54:33;13.23;79.13
68257;DHT22;55069;51.568;4.656;2023-03-31T09:57:01;13.20;79.28
68257;DHT22;55069;51.568;4.656;2023-03-31T09:59:34;13.24;79.49
68257;DHT22;55069;51.568;4.656;2023-03-31T10:02:04;13.20;79.66
68257;DHT22;55069;51.568;4.656;2023-03-31T10:04:45;13.03;79.69
68257;DHT22;55069;51.568;4.656;2023-03-31T10:07:11;12.99;80.14
68257;DHT22;55069;51.568;4.656;2023-03-31T10:09:38;12.99;79.78
68257;DHT22;55069;51.568;4.656;2023-03-31T10:12:30;12.98;79.88
68257;DHT22;55069;51.568;4.656;2023-03-31T10:15:14;13.13;80.64
68257;DHT22;55069;51.568;4.656;2023-03-31T10:17:43;13.22;80.05
68257;DHT22;55069;51.568;4.656;2023-03-31T10:20:20;13.23;80.03
68257;DHT22;55069;51.568;4.656;2023-03-31T10:22:52;13.22;79.84
68257;DHT22;55069;51.568;4.656;2023-03-31T10:25:23;13.18;80.37
68257;DHT22;55069;51.568;4.656;2023-03-31T10:27:54;13.12;81.23
68257;DHT22;55069;51.568;4.656;2023-03-31T10:30:23;12.96;80.67
68257;DHT22;55069;51.568;4.656;2023-03-31T10:32:50;12.78;81.62
68257;DHT22;55069;51.568;4.656;2023-03-31T10:35:26;12.60;83.11
68257;DHT22;55069;51.568;4.656;2023-03-31T10:37:56;12.41;83.53
68257;DHT22;55069;51.568;4.656;2023-03-31T10:40:25;12.27;84.14
68257;DHT22;55069;51.568;4.656;2023-03-31T10:43:19;12.29;85.02
68257;DHT22;55069;51.568;4.656;2023-03-31T10:45:54;12.24;85.36
68257;DHT22;55069;51.568;4.656;2023-03-31T10:48:28;12.14;84.65
68257;DHT22;55069;51.568;4.656;2023-03-31T10:51:19;12.34;85.96
68257;DHT22;55069;51.568;4.656;2023-03-31T10:53:48;12.62;84.35
68257;DHT22;55069;51.568;4.656;2023-03-31T10:56:35;12.58;82.97
68257;DHT22;55069;51.568;4.656;2023-03-31T11:04:18;13.09;82.31
68257;DHT22;55069;51.568;4.656;2023-03-31T11:12:54;13.23;82.44
68257;DHT22;55069;51.568;4.656;2023-03-31T11:21:22;12.96;83.59
68257;DHT22;55069;51.568;4.656;2023-03-31T11:32:15;12.78;84.91
68257;DHT22;55069;51.568;4.656;2023-03-31T11:37:37;12.68;84.85
68257;DHT22;55069;51.568;4.656;2023-03-31T11:40:10;12.51;84.66
68257;DHT22;55069;51.568;4.656;2023-03-31T11:42:45;12.58;85.41
68257;DHT22;55069;51.568;4.656;2023-03-31T11:45:35;12.69;85.55
68257;DHT22;55069;51.568;4.656;2023-03-31T11:48:06;12.74;85.73
68257;DHT22;55069;51.568;4.656;2023-03-31T11:50:37;12.84;85.13
68257;DHT22;55069;51.568;4.656;2023-03-31T11:53:17;13.02;84.30
68257;DHT22;55069;51.568;4.656;2023-03-31T11:55:47;13.32;85.13
68257;DHT22;55069;51.568;4.656;2023-03-31T11:58:22;13.39;83.75
68257;DHT22;55069;51.568;4.656;2023-03-31T12:01:06;13.50;82.74
68257;DHT22;55069;51.568;4.656;2023-03-31T12:06:16;13.26;83.13
68257;DHT22;55069;51.568;4.656;2023-03-31T12:14:29;12.71;83.92
68257;DHT22;55069;51.568;4.656;2023-03-31T12:17:16;12.60;85.06
68257;DHT22;55069;51.568;4.656;2023-03-31T12:19:49;12.57;85.12
68257;DHT22;55069;51.568;4.656;2023-03-31T12:24:42;12.57;85.14
68257;DHT22;55069;51.568;4.656;2023-03-31T12:29:44;12.72;85.00
68257;DHT22;55069;51.568;4.656;2023-03-31T12:32:18;12.81;84.42
68257;DHT22;55069;51.568;4.656;2023-03-31T12:35:37;12.72;84.62
68257;DHT22;55069;51.568;4.656;2023-03-31T12:38:06;12.53;85.27
68257;DHT22;55069;51.568;4.656;2023-03-31T12:46:05;12.65;84.43
68257;DHT22;55069;51.568;4.656;2023-03-31T13:00:08;12.54;84.96
68257;DHT22;55069;51.568;4.656;2023-03-31T13:02:34;12.64;84.36
68257;DHT22;55069;51.568;4.656;2023-03-31T13:08:02;12.84;84.30
68257;DHT22;55069;51.568;4.656;2023-03-31T13:10:29;12.85;83.48
68257;DHT22;55069;51.568;4.656;2023-03-31T13:13:25;12.84;83.90
68257;DHT22;55069;51.568;4.656;2023-03-31T13:15:55;12.68;82.85
68257;DHT22;55069;51.568;4.656;2023-03-31T13:18:22;12.54;83.06
68257;DHT22;55069;51.568;4.656;2023-03-31T13:21:17;12.57;84.19
68257;DHT22;55069;51.568;4.656;2023-03-31T13:23:44;12.45;84.16
68257;DHT22;55069;51.568;4.656;2023-03-31T13:29:10;12.29;84.87
68257;DHT22;55069;51.568;4.656;2023-03-31T13:45:25;12.38;85.43
68257;DHT22;55069;51.568;4.656;2023-03-31T14:07:19;11.89;85.78
68257;DHT22;55069;51.568;4.656;2023-03-31T14:09:45;11.99;85.20
68257;DHT22;55069;51.568;4.656;2023-03-31T14:12:33;12.00;84.62
68257;DHT22;55069;51.568;4.656;2023-03-31T14:14:59;12.17;85.37
68257;DHT22;55069;51.568;4.656;2023-03-31T14:17:28;12.10;84.41
68257;DHT22;55069;51.568;4.656;2023-03-31T14:25:19;12.19;85.05
68257;DHT22;55069;51.568;4.656;2023-03-31T14:28:14;12.14;84.77
68257;DHT22;55069;51.568;4.656;2023-03-31T14:35:40;12.20;84.89
68257;DHT22;55069;51.568;4.656;2023-03-31T14:38:17;12.10;85.33
68257;DHT22;55069;51.568;4.656;2023-03-31T14:40:49;12.00;85.14
68257;DHT22;55069;51.568;4.656;2023-03-31T14:43:28;11.83;85.73
68257;DHT22;55069;51.568;4.656;2023-03-31T14:46:02;11.71;85.86
68257;DHT22;55069;51.568;4.656;2023-03-31T14:48:30;11.58;86.72
68257;DHT22;55069;51.568;4.656;2023-03-31T14:51:00;11.55;86.82
68257;DHT22;55069;51.568;4.656;2023-03-31T14:53:26;11.55;86.62
68257;DHT22;55069;51.568;4.656;2023-03-31T14:56:08;11.51;86.68
68257;DHT22;55069;51.568;4.656;2023-03-31T14:58:40;11.54;86.93
68257;DHT22;55069;51.568;4.656;2023-03-31T15:01:08;11.51;86.92
68257;DHT22;55069;51.568;4.656;2023-03-31T15:03:38;11.62;86.62
68257;DHT22;55069;51.568;4.656;2023-03-31T15:06:08;11.57;86.35
68257;DHT22;55069;51.568;4.656;2023-03-31T15:08:36;11.65;86.98
68257;DHT22;55069;51.568;4.656;2023-03-31T15:11:05;11.50;86.19
68257;DHT22;55069;51.568;4.656;2023-03-31T15:13:41;11.48;86.48
68257;DHT22;55069;51.568;4.656;2023-03-31T15:16:20;11.52;86.74
68257;DHT22;55069;51.568;4.656;2023-03-31T15:18:46;11.48;86.96
68257;DHT22;55069;51.568;4.656;2023-03-31T15:21:24;11.45;86.90
68257;DHT22;55069;51.568;4.656;2023-03-31T15:23:51;11.55;86.82
68257;DHT22;55069;51.568;4.656;2023-03-31T15:26:19;11.51;86.52
68257;DHT22;55069;51.568;4.656;2023-03-31T15:28:56;11.52;87.01
68257;DHT22;55069;51.568;4.656;2023-03-31T15:31:23;11.50;87.34
68257;DHT22;55069;51.568;4.656;2023-03-31T15:33:52;11.44;87.56
68257;DHT22;55069;51.568;4.656;2023-03-31T15:36:19;11.48;87.64
68257;DHT22;55069;51.568;4.656;2023-03-31T15:38:46;11.37;87.48
68257;DHT22;55069;51.568;4.656;2023-03-31T15:41:17;11.42;87.74
68257;DHT22;55069;51.568;4.656;2023-03-31T15:43:47;11.37;87.97
68257;DHT22;55069;51.568;4.656;2023-03-31T15:46:24;11.34;87.78
68257;DHT22;55069;51.568;4.656;2023-03-31T15:48:52;11.34;88.04
68257;DHT22;55069;51.568;4.656;2023-03-31T15:53:50;11.44;87.58
68257;DHT22;55069;51.568;4.656;2023-03-31T15:56:40;11.38;87.72
68257;DHT22;55069;51.568;4.656;2023-03-31T16:02:19;11.23;88.18
68257;DHT22;55069;51.568;4.656;2023-03-31T16:04:53;11.13;88.57
68257;DHT22;55069;51.568;4.656;2023-03-31T16:07:29;11.04;89.29
68257;DHT22;55069;51.568;4.656;2023-03-31T16:17:34;10.89;90.35
68257;DHT22;55069;51.568;4.656;2023-03-31T16:20:09;10.93;90.59
68257;DHT22;55069;51.568;4.656;2023-03-31T16:22:45;10.83;90.58
68257;DHT22;55069;51.568;4.656;2023-03-31T16:25:18;10.82;90.80
68257;DHT22;55069;51.568;4.656;2023-03-31T16:27:48;10.83;90.99
68257;DHT22;55069;51.568;4.656;2023-03-31T16:30:18;10.89;90.80
68257;DHT22;55069;51.568;4.656;2023-03-31T16:33:04;10.80;90.83
68257;DHT22;55069;51.568;4.656;2023-03-31T16:35:55;10.88;90.95
68257;DHT22;55069;51.568;4.656;2023-03-31T16:38:26;10.77;90.67
68257;DHT22;55069;51.568;4.656;2023-03-31T16:40:54;10.76;91.25
68257;DHT22;55069;51.568;4.656;2023-03-31T16:43:28;10.75;91.25
68257;DHT22;55069;51.568;4.656;2023-03-31T16:45:57;10.72;91.46
68257;DHT22;55069;51.568;4.656;2023-03-31T16:48:25;10.69;91.33
68257;DHT22;55069;51.568;4.656;2023-03-31T16:50:54;10.66;91.30
68257;DHT22;55069;51.568;4.656;2023-03-31T16:53:23;10.71;91.42
68257;DHT22;55069;51.568;4.656;2023-03-31T16:55:49;10.68;91.55
68257;DHT22;55069;51.568;4.656;2023-03-31T16:58:15;10.62;91.27
68257;DHT22;55069;51.568;4.656;2023-03-31T17:00:42;10.65;91.38
68257;DHT22;55069;51.568;4.656;2023-03-31T17:03:10;10.61;91.72
68257;DHT22;55069;51.568;4.656;2023-03-31T17:05:38;10.61;91.50
68257;DHT22;55069;51.568;4.656;2023-03-31T17:08:04;10.61;91.51
68257;DHT22;55069;51.568;4.656;2023-03-31T17:10:30;10.65;91.58
68257;DHT22;55069;51.568;4.656;2023-03-31T17:12:56;10.66;91.43
68257;DHT22;55069;51.568;4.656;2023-03-31T17:15:22;10.65;91.11
68257;DHT22;55069;51.568;4.656;2023-03-31T17:17:48;10.62;90.94
68257;DHT22;55069;51.568;4.656;2023-03-31T17:20:13;10.66;91.11
68257;DHT22;55069;51.568;4.656;2023-03-31T17:22:39;10.69;91.02
68257;DHT22;55069;51.568;4.656;2023-03-31T17:25:05;10.65;91.17
68257;DHT22;55069;51.568;4.656;2023-03-31T17:27:32;10.61;91.18
68257;DHT22;55069;51.568;4.656;2023-03-31T17:29:58;10.65;91.34
68257;DHT22;55069;51.568;4.656;2023-03-31T17:32:24;10.59;91.46
68257;DHT22;55069;51.568;4.656;2023-03-31T17:34:51;10.61;91.64
68257;DHT22;55069;51.568;4.656;2023-03-31T17:37:17;10.59;91.43
68257;DHT22;55069;51.568;4.656;2023-03-31T17:39:43;10.53;91.56
68257;DHT22;55069;51.568;4.656;2023-03-31T17:42:10;10.51;91.40
68257;DHT22;55069;51.568;4.656;2023-03-31T17:44:36;10.51;91.26
68257;DHT22;55069;51.568;4.656;2023-03-31T17:47:02;10.51;91.29
68257;DHT22;55069;51.568;4.656;2023-03-31T17:49:27;10.52;91.19
68257;DHT22;55069;51.568;4.656;2023-03-31T17:51:53;10.49;91.25
68257;DHT22;55069;51.568;4.656;2023-03-31T17:54:19;10.51;91.28
68257;DHT22;55069;51.568;4.656;2023-03-31T17:56:45;10.55;91.20
68257;DHT22;55069;51.568;4.656;2023-03-31T17:59:14;10.48;91.49
68257;DHT22;55069;51.568;4.656;2023-03-31T18:01:40;10.46;91.43
68257;DHT22;55069;51.568;4.656;2023-03-31T18:04:06;10.46;91.78
68257;DHT22;55069;51.568;4.656;2023-03-31T18:06:32;10.41;91.88
68257;DHT22;55069;51.568;4.656;2023-03-31T18:08:58;10.40;91.91
68257;DHT22;55069;51.568;4.656;2023-03-31T18:11:25;10.44;91.90
68257;DHT22;55069;51.568;4.656;2023-03-31T18:13:51;10.38;92.17
68257;DHT22;55069;51.568;4.656;2023-03-31T18:16:18;10.37;92.15
68257;DHT22;55069;51.568;4.656;2023-03-31T18:18:44;10.40;92.16
68257;DHT22;55069;51.568;4.656;2023-03-31T18:21:12;10.34;92.30
68257;DHT22;55069;51.568;4.656;2023-03-31T18:23:38;10.31;92.31
68257;DHT22;55069;51.568;4.656;2023-03-31T18:26:08;10.34;92.26
68257;DHT22;55069;51.568;4.656;2023-03-31T18:28:35;10.31;92.20
68257;DHT22;55069;51.568;4.656;2023-03-31T18:31:06;10.34;92.30
68257;DHT22;55069;51.568;4.656;2023-03-31T18:33:32;10.34;92.27
68257;DHT22;55069;51.568;4.656;2023-03-31T18:35:58;10.31;92.21
68257;DHT22;55069;51.568;4.656;2023-03-31T18:38:25;10.32;92.32
68257;DHT22;55069;51.568;4.656;2023-03-31T18:40:51;10.30;92.34
68257;DHT22;55069;51.568;4.656;2023-03-31T18:43:19;10.31;92.33